Flight Track Log - Related Links

Times and Time Zones

All times are in EDT time to prevent confusion due to time zone crossing. See the ASQ4557 flight status page for this flight to view local times or setup timezone preferences in your user account.

Time Position Orientation Groundspeed Altitude Reporting Facility
EDT Latitude Longitude Course Direction KTS MPH feet Rate Location/Type
Sat 09:28:25 AM 29.9658 -95.3431 30° Northeast 153 176 600  Level Houston Center
Sat 09:28:53 AM 29.9658 -95.3214 90° East 174 200 1,600 1,612 Climbing Houston Center
Sat 09:29:32 AM 30.0042 -95.3022 23° Northeast 242 278 2,400 1,258 Climbing Houston Center
Sat 09:29:55 AM 30.0231 -95.2911 27° Northeast 233 268 2,900 2,143 Climbing Houston Center
Sat 09:30:56 AM 30.0981 -95.2564 22° Northeast 278 320 5,400 2,585 Climbing Houston Center
Sat 09:31:00 AM 30.3423 -95.1903 14° North  Level FlightAware Approximate
Sat 09:31:58 AM 30.1747 -95.2347 14° North 284 327 8,200  Level Houston Center
Sat 09:32:00 AM 30.4592 -95.1345 27° Northeast  Level FlightAware Approximate
Sat 09:32:59 AM 30.2522 -95.2150 12° North 284 327 10,300  Level Houston Center
Sat 09:33:00 AM 30.5728 -95.0737 30° Northeast  Level FlightAware Approximate
Sat 09:34:01 AM 30.3389 -95.1908 14° North 318 366 11,000  Level Houston Center
Sat 09:35:03 AM 30.4481 -95.1606 13° North 356 410 12,500 1,463 Climbing Houston Center
Sat 09:36:04 AM 30.5392 -95.1061 27° Northeast 363 418 14,000 1,268 Climbing Houston Center
Sat 09:37:06 AM 30.6294 -95.0492 28° Northeast 365 420 15,100 1,016 Climbing Houston Center
Sat 09:38:08 AM 30.7267 -94.9903 28° Northeast 384 442 16,100 1,171 Climbing Houston Center
Sat 09:39:09 AM 30.8439 -94.9161 29° Northeast 396 456 17,500 1,268 Climbing Houston Center
Sat 09:40:11 AM 30.9431 -94.8550 28° Northeast 400 460 18,700 1,113 Climbing Houston Center
Sat 09:41:13 AM 31.0436 -94.7906 29° Northeast 406 467 19,800 1,113 Climbing Houston Center
Sat 09:42:15 AM 31.1447 -94.7258 29° Northeast 415 478 21,000 1,122 Climbing Houston Center
Sat 09:43:16 AM 31.2458 -94.6592 29° Northeast 415 478 22,100 1,220 Climbing Houston Center
Sat 09:44:18 AM 31.3678 -94.5753 30° Northeast 429 494 23,500 1,210 Climbing Houston Center
Sat 09:45:20 AM 31.4717 -94.5039 30° Northeast 430 495 24,600 1,122 Climbing Houston Center
Sat 09:46:21 AM 31.5753 -94.4314 31° Northeast 431 496 25,800 1,150 Climbing Houston Center
Sat 09:47:20 AM 31.6786 -94.3603 30° Northeast 433 498 26,900 1,140 Climbing Fort Worth Center
Sat 09:48:22 AM 31.7817 -94.2889 30° Northeast 432 497 28,100 1,113 Climbing Fort Worth Center
Sat 09:49:24 AM 31.8775 -94.2064 36° Northeast 429 494 29,200 1,122 Climbing Fort Worth Center
Sat 09:50:25 AM 31.9689 -94.1156 40° Northeast 429 494 30,400 1,122 Climbing Fort Worth Center
Sat 09:51:27 AM 32.0617 -94.0256 39° Northeast 431 496 31,500 1,210 Climbing Fort Worth Center
Sat 09:52:29 AM 32.1747 -93.9158 39° Northeast 434 499 32,900 1,171 Climbing Fort Worth Center
Sat 09:53:30 AM 32.2531 -93.8381 40° Northeast 439 505 33,900 1,024 Climbing Fort Worth Center
Sat 09:54:32 AM 32.3669 -93.7261 40° Northeast 443 510 35,000 532 Climbing Fort Worth Center
Sat 09:55:34 AM 32.4658 -93.6314 39° Northeast 473 544 35,000  Level Fort Worth Center
Sat 09:56:36 AM 32.5656 -93.5314 40° Northeast 474 545 35,000  Level Fort Worth Center
Sat 09:57:37 AM 32.6653 -93.4342 39° Northeast 468 539 35,000  Level Fort Worth Center
Sat 09:58:39 AM 32.7625 -93.3378 40° Northeast 462 532 35,000  Level Fort Worth Center
Sat 09:59:41 AM 32.8619 -93.2392 40° Northeast 466 536 35,000  Level Fort Worth Center
Sat 10:01:27 AM 33.0417 -93.0606 40° Northeast 466 536 35,000  Level Memphis Center
Sat 10:02:29 AM 33.1428 -92.9611 39° Northeast 468 539 35,000  Level Memphis Center
Sat 10:03:31 AM 33.2628 -92.8408 40° Northeast 469 540 35,000  Level Memphis Center
Sat 10:04:32 AM 33.3631 -92.7389 40° Northeast 471 542 35,000  Level Memphis Center
Sat 10:05:34 AM 33.4619 -92.6389 40° Northeast 471 542 35,000  Level Memphis Center
Sat 10:06:36 AM 33.5628 -92.5383 40° Northeast 471 542 35,000  Level Memphis Center
Sat 10:07:38 AM 33.6614 -92.4375 40° Northeast 471 542 35,000  Level Memphis Center
Sat 10:08:40 AM 33.7611 -92.3353 40° Northeast 471 542 35,000  Level Memphis Center
Sat 10:09:42 AM 33.8806 -92.2131 40° Northeast 471 542 35,000  Level Memphis Center
Sat 10:10:43 AM 33.9786 -92.1125 40° Northeast 470 541 35,000  Level Memphis Center
Sat 10:11:45 AM 34.0781 -92.0092 41° Northeast 470 541 35,000  Level Memphis Center
Sat 10:12:47 AM 34.1867 -91.8986 40° Northeast 471 542 35,000  Level Memphis Center
Sat 10:13:49 AM 34.2831 -91.7975 41° Northeast 469 540 35,000  Level Memphis Center
Sat 10:14:51 AM 34.3831 -91.6931 41° Northeast 468 539 35,000  Level Memphis Center
Sat 10:15:53 AM 34.4817 -91.5903 41° Northeast 468 539 35,000  Level Memphis Center
Sat 10:16:54 AM 34.5814 -91.4864 41° Northeast 468 539 35,000  Level Memphis Center
Sat 10:17:56 AM 34.6792 -91.3836 41° Northeast 468 539 35,000  Level Memphis Center
Sat 10:18:58 AM 34.7783 -91.2800 41° Northeast 468 539 35,000  Level Memphis Center
Sat 10:20:00 AM 34.8972 -91.1547 41° Northeast 468 539 35,000  Level Memphis Center
Sat 10:21:02 AM 34.9956 -91.0500 41° Northeast 468 539 35,000  Level Memphis Center
Sat 10:22:04 AM 35.0936 -90.9456 41° Northeast 468 539 35,000  Level Memphis Center
Sat 10:23:05 AM 35.1917 -90.8400 41° Northeast 468 539 35,000  Level Memphis Center
Sat 10:24:07 AM 35.2897 -90.7342 41° Northeast 468 539 35,000  Level Memphis Center
Sat 10:25:09 AM 35.3894 -90.6286 41° Northeast 468 539 35,000  Level Memphis Center
Sat 10:26:11 AM 35.4881 -90.5208 42° Northeast 469 540 35,000  Level Memphis Center
Sat 10:27:13 AM 35.6064 -90.3928 41° Northeast 469 540 35,000  Level Memphis Center
Sat 10:28:15 AM 35.6964 -90.2958 41° Northeast 469 540 35,000  Level Memphis Center
Sat 10:29:17 AM 35.7936 -90.1881 42° Northeast 470 541 35,000  Level Memphis Center
Sat 10:30:19 AM 35.8919 -90.0811 41° Northeast 470 541 35,000  Level Memphis Center
Sat 10:31:20 AM 36.0094 -89.9517 42° Northeast 470 541 35,000  Level Memphis Center
Sat 10:32:22 AM 36.1072 -89.8431 42° Northeast 470 541 35,000  Level Memphis Center
Sat 10:33:24 AM 36.2053 -89.7361 41° Northeast 470 541 35,000  Level Memphis Center
Sat 10:34:26 AM 36.3019 -89.6283 42° Northeast 469 540 35,000  Level Memphis Center
Sat 10:35:28 AM 36.3994 -89.5203 42° Northeast 468 539 35,000  Level Memphis Center
Sat 10:36:30 AM 36.4992 -89.4100 42° Northeast 465 535 35,000 -98 Level Memphis Center
Sat 10:37:31 AM 36.5961 -89.2989 43° Northeast 465 535 34,800 -488 Descending Memphis Center
Sat 10:38:33 AM 36.6922 -89.1906 42° Northeast 465 535 34,000 -387 Descending Memphis Center
Sat 10:39:35 AM 36.7883 -89.0825 42° Northeast 465 535 34,000  Level Memphis Center
Sat 10:40:37 AM 36.8850 -88.9731 42° Northeast 465 535 34,000  Level Memphis Center
Sat 10:41:38 AM 36.9797 -88.8636 43° Northeast 465 535 34,000  Level Memphis Center
Sat 10:42:40 AM 37.0950 -88.7319 42° Northeast 465 535 34,000 -194 Level Memphis Center
Sat 10:43:42 AM 37.1914 -88.6228 42° Northeast 465 535 33,600 -683 Descending Memphis Center
Sat 10:44:43 AM 37.2878 -88.5122 42° Northeast 465 535 32,600 -1,073 Descending Memphis Center
Sat 10:45:45 AM 37.3806 -88.4047 43° Northeast 459 528 31,400 -1,210 Descending Memphis Center
Sat 10:46:47 AM 37.4750 -88.2961 42° Northeast 457 526 30,100 -1,171 Descending Memphis Center
Sat 10:47:48 AM 37.5700 -88.1844 43° Northeast 462 532 29,000 -537 Descending Memphis Center
Sat 10:48:50 AM 37.6608 -88.0706 45° Northeast 462 532 29,000  Level Memphis Center
Sat 10:49:52 AM 37.7314 -87.8853 64° Northeast 486 559 29,000 -146 Level Memphis Center
Sat 10:50:53 AM 37.7883 -87.7303 65° Northeast 486 559 28,700 -864 Descending Memphis Center
Sat 10:51:57 AM 37.8411 -87.5883 65° Northeast 489 563 27,200 -1,762 Descending Indianapolis Center
Sat 10:52:59 AM 37.9100 -87.4000 65° Northeast 495 570 25,000 -2,146 Descending Indianapolis Center
Sat 10:54:00 AM 37.9653 -87.2489 65° Northeast 482 555 22,800 -2,293 Descending Indianapolis Center
Sat 10:55:02 AM 38.0164 -87.1089 65° Northeast 454 522 20,300 -2,323 Descending Indianapolis Center
Sat 10:56:04 AM 38.0647 -86.9756 65° Northeast 428 493 18,000 -2,177 Descending Indianapolis Center
Sat 10:57:06 AM 38.1131 -86.8425 65° Northeast 423 487 15,800 -2,129 Descending Indianapolis Center
Sat 10:58:08 AM 38.1608 -86.7094 65° Northeast 423 487 13,600 -2,293 Descending Indianapolis Center
Sat 10:59:09 AM 38.2172 -86.5528 65° Northeast 414 476 11,100 -1,317 Descending Indianapolis Center
Sat 11:00:11 AM 38.2169 -86.4139 90° East 406 467 10,900 -387 Descending Indianapolis Center
Sat 11:01:13 AM 38.2294 -86.2878 83° East 367 422 10,300 -976 Descending Indianapolis Center
Sat 11:02:14 AM 38.2611 -86.1864 68° East 322 371 8,900 -1,415 Descending Indianapolis Center
Sat 11:03:16 AM 38.2900 -86.0892 69° East 300 345 7,400 -1,452 Descending Indianapolis Center
Sat 11:04:18 AM 38.3189 -85.9933 69° East 295 339 5,900 -1,463 Descending Indianapolis Center
Sat 11:05:19 AM 38.3217 -85.8925 88° East 297 342 4,400 -1,366 Descending Indianapolis Center
Sat 11:06:21 AM 38.3211 -85.7964 90° East 282 325 3,100 -919 Descending Indianapolis Center
Sat 11:07:23 AM 38.2519 -85.7586 157° South 272 313 2,500 -581 Descending Indianapolis Center
Sat 11:10:00 AM 38.1741 -85.7365 135° Southeast  Level Estimated

Login

Don't have an account? Register now (free) for customized features, flight alerts, and more!